CAL504 ZSPD-RCTP
Flight info
| Callsign | CAL504 |
|---|---|
| Flight time | 1h 22m |
| Altitude | 32100 |
| Route | MIG82D MIGOL B591 KASKA/N0507F320 L2 BERBA/N0475F240 B591 BAKER BAKER1A |
| Aircraft | B77W/H-SDE1E2E3FGHIJ2J3J4J5M1RWXY/LB1D1 |
Departure
| Time | 2026-05-05 06:15 |
|---|---|
| Airport | Shanghai Pudong International Airport (ZSPD) |
Arrival
| Time | 2026-05-05 07:37 |
|---|---|
| Airport | Taiwan Taoyuan International Airport (RCTP) |
| Time | Latitude | Longitude | Altitude | Speed | Heading |
|---|---|---|---|---|---|
| 2026-05-05 05:37 | 31.14802 | 121.79775 | 27 ft | 0 kts | 71° |
| 2026-05-05 06:00 | 31.14800 | 121.79768 | 27 ft | 2 kts | 72° |
| 2026-05-05 06:00 | 31.14795 | 121.79752 | 27 ft | 2 kts | 71° |
| 2026-05-05 06:01 | 31.14791 | 121.79735 | 27 ft | 2 kts | 71° |
| 2026-05-05 06:01 | 31.14786 | 121.79718 | 27 ft | 2 kts | 71° |
| 2026-05-05 06:01 | 31.14782 | 121.79701 | 27 ft | 2 kts | 90° |
| 2026-05-05 06:01 | 31.14784 | 121.79684 | 27 ft | 2 kts | 111° |
| 2026-05-05 06:02 | 31.14792 | 121.79669 | 27 ft | 2 kts | 131° |
| 2026-05-05 06:02 | 31.14803 | 121.79657 | 27 ft | 2 kts | 150° |
| 2026-05-05 06:02 | 31.14817 | 121.79651 | 27 ft | 2 kts | 165° |
| 2026-05-05 06:02 | 31.14831 | 121.79646 | 27 ft | 2 kts | 164° |
| 2026-05-05 06:03 | 31.14839 | 121.79644 | 27 ft | 0 kts | 162° |
| 2026-05-05 06:04 | 31.14838 | 121.79644 | 27 ft | 0 kts | 162° |
| 2026-05-05 06:05 | 31.14812 | 121.79653 | 27 ft | 7 kts | 162° |
| 2026-05-05 06:05 | 31.14749 | 121.79677 | 27 ft | 8 kts | 162° |
| 2026-05-05 06:05 | 31.14690 | 121.79699 | 27 ft | 9 kts | 162° |
| 2026-05-05 06:05 | 31.14626 | 121.79723 | 27 ft | 10 kts | 162° |
| 2026-05-05 06:06 | 31.14557 | 121.79750 | 27 ft | 10 kts | 162° |
| 2026-05-05 06:06 | 31.14485 | 121.79777 | 27 ft | 10 kts | 162° |
| 2026-05-05 06:06 | 31.14418 | 121.79802 | 27 ft | 10 kts | 162° |
| 2026-05-05 06:06 | 31.14337 | 121.79832 | 27 ft | 12 kts | 162° |
| 2026-05-05 06:07 | 31.14252 | 121.79865 | 27 ft | 11 kts | 162° |
| 2026-05-05 06:07 | 31.14201 | 121.79889 | 27 ft | 6 kts | 139° |
| 2026-05-05 06:07 | 31.14191 | 121.79945 | 27 ft | 8 kts | 78° |
| 2026-05-05 06:07 | 31.14214 | 121.80025 | 27 ft | 12 kts | 72° |
| 2026-05-05 06:08 | 31.14243 | 121.80127 | 27 ft | 13 kts | 72° |
| 2026-05-05 06:08 | 31.14271 | 121.80231 | 27 ft | 13 kts | 72° |
| 2026-05-05 06:08 | 31.14301 | 121.80343 | 27 ft | 14 kts | 72° |
| 2026-05-05 06:08 | 31.14336 | 121.80460 | 27 ft | 15 kts | 72° |
| 2026-05-05 06:09 | 31.14371 | 121.80587 | 27 ft | 16 kts | 72° |
| 2026-05-05 06:09 | 31.14406 | 121.80717 | 27 ft | 16 kts | 72° |
| 2026-05-05 06:09 | 31.14442 | 121.80849 | 27 ft | 17 kts | 71° |
| 2026-05-05 06:09 | 31.14482 | 121.80983 | 27 ft | 17 kts | 72° |
| 2026-05-05 06:10 | 31.14517 | 121.81110 | 27 ft | 15 kts | 72° |
| 2026-05-05 06:10 | 31.14550 | 121.81229 | 27 ft | 14 kts | 72° |
| 2026-05-05 06:10 | 31.14581 | 121.81340 | 27 ft | 13 kts | 72° |
| 2026-05-05 06:10 | 31.14605 | 121.81413 | 27 ft | 6 kts | 50° |
| 2026-05-05 06:11 | 31.14665 | 121.81422 | 27 ft | 11 kts | 345° |
| 2026-05-05 06:11 | 31.14761 | 121.81387 | 27 ft | 16 kts | 342° |
| 2026-05-05 06:11 | 31.14866 | 121.81346 | 27 ft | 15 kts | 342° |
| 2026-05-05 06:11 | 31.14969 | 121.81308 | 27 ft | 15 kts | 342° |
| 2026-05-05 06:12 | 31.15077 | 121.81267 | 27 ft | 17 kts | 342° |
| 2026-05-05 06:12 | 31.15190 | 121.81226 | 27 ft | 16 kts | 343° |
| 2026-05-05 06:12 | 31.15295 | 121.81185 | 27 ft | 15 kts | 341° |
| 2026-05-05 06:12 | 31.15396 | 121.81145 | 27 ft | 14 kts | 341° |
| 2026-05-05 06:13 | 31.15491 | 121.81109 | 27 ft | 14 kts | 342° |
| 2026-05-05 06:13 | 31.15584 | 121.81074 | 27 ft | 13 kts | 343° |
| 2026-05-05 06:13 | 31.15671 | 121.81042 | 27 ft | 12 kts | 341° |
| 2026-05-05 06:13 | 31.15737 | 121.81045 | 27 ft | 9 kts | 36° |
| 2026-05-05 06:14 | 31.15770 | 121.81124 | 27 ft | 11 kts | 76° |
| 2026-05-05 06:14 | 31.15778 | 121.81200 | 27 ft | 8 kts | 111° |
| 2026-05-05 06:14 | 31.15735 | 121.81237 | 27 ft | 6 kts | 162° |
| 2026-05-05 06:14 | 31.15591 | 121.81292 | 27 ft | 53 kts | 161° |
| 2026-05-05 06:15 | 31.14969 | 121.81528 | 28 ft | 130 kts | 161° |
| 2026-05-05 06:15 | 31.13971 | 121.81916 | 322 ft | 164 kts | 162° |
| 2026-05-05 06:15 | 31.12848 | 121.82355 | 1181 ft | 172 kts | 163° |
| 2026-05-05 06:15 | 31.11747 | 121.82741 | 1852 ft | 171 kts | 165° |
| 2026-05-05 06:16 | 31.10580 | 121.83221 | 2215 ft | 187 kts | 157° |
| 2026-05-05 06:16 | 31.09382 | 121.84013 | 2532 ft | 207 kts | 148° |
| 2026-05-05 06:16 | 31.08121 | 121.85035 | 2945 ft | 226 kts | 146° |
| 2026-05-05 06:16 | 31.06767 | 121.86151 | 3483 ft | 240 kts | 146° |
| 2026-05-05 06:17 | 31.05367 | 121.87299 | 4057 ft | 255 kts | 146° |
| 2026-05-05 06:17 | 31.03881 | 121.88515 | 4690 ft | 264 kts | 146° |
| 2026-05-05 06:17 | 31.02340 | 121.89775 | 4919 ft | 268 kts | 145° |
| 2026-05-05 06:17 | 31.00836 | 121.91107 | 4910 ft | 267 kts | 140° |
| 2026-05-05 06:18 | 30.99445 | 121.92564 | 4921 ft | 267 kts | 138° |
| 2026-05-05 06:18 | 30.98065 | 121.94038 | 4925 ft | 267 kts | 138° |
| 2026-05-05 06:18 | 30.96684 | 121.95508 | 4913 ft | 266 kts | 138° |
| 2026-05-05 06:18 | 30.95310 | 121.96965 | 4917 ft | 267 kts | 138° |
| 2026-05-05 06:19 | 30.94088 | 121.98638 | 4897 ft | 267 kts | 117° |
| 2026-05-05 06:19 | 30.93629 | 122.00784 | 4903 ft | 278 kts | 89° |
| 2026-05-05 06:19 | 30.93957 | 122.03019 | 5749 ft | 279 kts | 76° |
| 2026-05-05 06:19 | 30.94495 | 122.05152 | 6787 ft | 274 kts | 73° |
| 2026-05-05 06:20 | 30.95084 | 122.07291 | 7544 ft | 280 kts | 72° |
| 2026-05-05 06:20 | 30.95704 | 122.09515 | 8272 ft | 285 kts | 71° |
| 2026-05-05 06:20 | 30.96315 | 122.11710 | 9061 ft | 287 kts | 71° |
| 2026-05-05 06:20 | 30.96943 | 122.13969 | 9739 ft | 293 kts | 71° |
| 2026-05-05 06:21 | 30.97575 | 122.16245 | 10344 ft | 301 kts | 71° |
| 2026-05-05 06:21 | 30.98245 | 122.18658 | 10727 ft | 319 kts | 71° |
| 2026-05-05 06:21 | 30.98944 | 122.21182 | 11118 ft | 336 kts | 71° |
| 2026-05-05 06:21 | 30.99651 | 122.23827 | 11533 ft | 353 kts | 75° |
| 2026-05-05 06:22 | 30.99997 | 122.26739 | 11961 ft | 371 kts | 87° |
| 2026-05-05 06:22 | 31.00025 | 122.29771 | 12505 ft | 385 kts | 89° |
| 2026-05-05 06:22 | 31.00019 | 122.33000 | 13272 ft | 394 kts | 89° |
| 2026-05-05 06:22 | 31.00014 | 122.36183 | 14132 ft | 400 kts | 89° |
| 2026-05-05 06:23 | 31.00010 | 122.39439 | 15081 ft | 406 kts | 89° |
| 2026-05-05 06:23 | 31.00005 | 122.42759 | 16059 ft | 412 kts | 89° |
| 2026-05-05 06:23 | 31.00008 | 122.46108 | 16968 ft | 419 kts | 89° |
| 2026-05-05 06:23 | 31.00014 | 122.49516 | 17843 ft | 426 kts | 89° |
| 2026-05-05 06:24 | 31.00020 | 122.53022 | 18752 ft | 432 kts | 90° |
| 2026-05-05 06:24 | 31.00024 | 122.56539 | 19709 ft | 436 kts | 90° |
| 2026-05-05 06:24 | 31.00027 | 122.60047 | 20576 ft | 442 kts | 90° |
| 2026-05-05 06:24 | 31.00030 | 122.63689 | 21339 ft | 450 kts | 90° |
| 2026-05-05 06:25 | 31.00031 | 122.67333 | 22159 ft | 455 kts | 91° |
| 2026-05-05 06:25 | 31.00032 | 122.71094 | 22946 ft | 461 kts | 91° |
| 2026-05-05 06:25 | 31.00031 | 122.74850 | 23665 ft | 468 kts | 92° |
| 2026-05-05 06:25 | 31.00029 | 122.78651 | 24295 ft | 475 kts | 92° |
| 2026-05-05 06:26 | 31.00025 | 122.82552 | 24856 ft | 484 kts | 92° |
| 2026-05-05 06:26 | 31.00021 | 122.86520 | 25462 ft | 491 kts | 92° |
| 2026-05-05 06:26 | 31.00015 | 122.90512 | 26113 ft | 497 kts | 92° |
| 2026-05-05 06:26 | 31.00008 | 122.94587 | 26727 ft | 504 kts | 93° |
| 2026-05-05 06:27 | 30.99763 | 122.98676 | 27215 ft | 508 kts | 102° |
| 2026-05-05 06:27 | 30.97778 | 123.06608 | 28331 ft | 512 kts | 117° |
| 2026-05-05 06:27 | 30.96466 | 123.10483 | 28994 ft | 516 kts | 117° |
| 2026-05-05 06:28 | 30.95120 | 123.14432 | 29604 ft | 521 kts | 118° |
| 2026-05-05 06:28 | 30.93792 | 123.18328 | 30255 ft | 523 kts | 118° |
| 2026-05-05 06:28 | 30.92452 | 123.22259 | 30955 ft | 522 kts | 118° |
| 2026-05-05 06:28 | 30.91104 | 123.26212 | 31642 ft | 521 kts | 119° |
| 2026-05-05 06:29 | 30.89738 | 123.30211 | 32019 ft | 525 kts | 119° |
| 2026-05-05 06:29 | 30.87047 | 123.38086 | 32092 ft | 522 kts | 119° |
| 2026-05-05 06:30 | 30.84345 | 123.45973 | 32092 ft | 523 kts | 119° |
| 2026-05-05 06:30 | 30.81438 | 123.53731 | 32095 ft | 512 kts | 128° |
| 2026-05-05 06:31 | 30.77277 | 123.60191 | 32099 ft | 499 kts | 144° |
| 2026-05-05 06:31 | 30.74685 | 123.62884 | 32095 ft | 488 kts | 152° |
| 2026-05-05 06:31 | 30.71945 | 123.65072 | 32096 ft | 470 kts | 160° |
| 2026-05-05 06:31 | 30.69094 | 123.66801 | 32085 ft | 456 kts | 167° |
| 2026-05-05 06:32 | 30.66141 | 123.68098 | 32083 ft | 448 kts | 173° |
| 2026-05-05 06:32 | 30.60126 | 123.69415 | 32081 ft | 430 kts | 186° |
| 2026-05-05 06:33 | 30.54227 | 123.69477 | 32084 ft | 423 kts | 190° |
| 2026-05-05 06:33 | 30.48314 | 123.69447 | 32080 ft | 422 kts | 189° |
| 2026-05-05 06:34 | 30.42395 | 123.69431 | 32080 ft | 422 kts | 189° |
| 2026-05-05 06:34 | 30.36520 | 123.69424 | 32080 ft | 421 kts | 189° |
| 2026-05-05 06:35 | 30.30636 | 123.69421 | 32079 ft | 421 kts | 189° |
| 2026-05-05 06:35 | 30.24745 | 123.69419 | 32082 ft | 420 kts | 189° |
| 2026-05-05 06:36 | 30.18879 | 123.69418 | 32079 ft | 419 kts | 190° |
| 2026-05-05 06:36 | 30.13000 | 123.69418 | 32076 ft | 419 kts | 190° |
| 2026-05-05 06:37 | 30.07142 | 123.69418 | 32076 ft | 419 kts | 190° |
| 2026-05-05 06:37 | 30.01291 | 123.69421 | 32075 ft | 419 kts | 190° |
| 2026-05-05 06:38 | 29.95432 | 123.69418 | 32077 ft | 420 kts | 190° |
| 2026-05-05 06:38 | 29.89547 | 123.69418 | 32076 ft | 420 kts | 190° |
| 2026-05-05 06:39 | 29.83675 | 123.69418 | 32086 ft | 419 kts | 190° |
| 2026-05-05 06:39 | 29.77812 | 123.69417 | 32087 ft | 420 kts | 190° |
| 2026-05-05 06:40 | 29.71940 | 123.69416 | 32081 ft | 421 kts | 190° |
| 2026-05-05 06:40 | 29.66071 | 123.69417 | 32084 ft | 420 kts | 190° |
| 2026-05-05 06:41 | 29.60177 | 123.69416 | 32084 ft | 421 kts | 190° |
| 2026-05-05 06:41 | 29.54284 | 123.69416 | 32080 ft | 422 kts | 190° |
| 2026-05-05 06:42 | 29.48411 | 123.69417 | 32085 ft | 421 kts | 190° |
| 2026-05-05 06:42 | 29.42517 | 123.69417 | 32081 ft | 421 kts | 190° |
| 2026-05-05 06:43 | 29.36630 | 123.69415 | 32080 ft | 423 kts | 190° |
| 2026-05-05 06:43 | 29.30718 | 123.69418 | 32085 ft | 421 kts | 190° |
| 2026-05-05 06:44 | 29.24819 | 123.69415 | 32080 ft | 424 kts | 190° |
| 2026-05-05 06:44 | 29.18908 | 123.69416 | 32076 ft | 423 kts | 190° |
| 2026-05-05 06:45 | 29.12979 | 123.69417 | 32076 ft | 423 kts | 189° |
| 2026-05-05 06:45 | 29.07028 | 123.69416 | 32082 ft | 426 kts | 190° |
| 2026-05-05 06:46 | 29.01094 | 123.69417 | 32080 ft | 423 kts | 190° |
| 2026-05-05 06:46 | 28.95183 | 123.69416 | 32074 ft | 425 kts | 190° |
| 2026-05-05 06:47 | 28.89267 | 123.69417 | 32075 ft | 424 kts | 190° |
| 2026-05-05 06:47 | 28.83299 | 123.69416 | 32078 ft | 424 kts | 190° |
| 2026-05-05 06:48 | 28.77379 | 123.69417 | 32083 ft | 425 kts | 189° |
| 2026-05-05 06:48 | 28.71457 | 123.69317 | 32081 ft | 417 kts | 195° |
| 2026-05-05 06:49 | 28.65928 | 123.67683 | 32080 ft | 405 kts | 208° |
| 2026-05-05 06:49 | 28.60614 | 123.65378 | 32076 ft | 402 kts | 208° |
| 2026-05-05 06:50 | 28.55360 | 123.63093 | 32075 ft | 404 kts | 208° |
| 2026-05-05 06:50 | 28.50080 | 123.60802 | 32070 ft | 404 kts | 208° |
| 2026-05-05 06:51 | 28.44808 | 123.58518 | 32071 ft | 403 kts | 208° |
| 2026-05-05 06:51 | 28.39512 | 123.56226 | 32074 ft | 404 kts | 208° |
| 2026-05-05 06:52 | 28.34217 | 123.53937 | 32071 ft | 404 kts | 208° |
| 2026-05-05 06:52 | 28.28942 | 123.51659 | 32071 ft | 405 kts | 208° |
| 2026-05-05 06:53 | 28.23632 | 123.49367 | 32066 ft | 406 kts | 207° |
| 2026-05-05 06:53 | 28.18314 | 123.47076 | 32068 ft | 407 kts | 208° |
| 2026-05-05 06:54 | 28.13021 | 123.44798 | 32062 ft | 405 kts | 207° |
| 2026-05-05 06:54 | 28.07685 | 123.42503 | 32063 ft | 407 kts | 207° |
| 2026-05-05 06:55 | 28.02428 | 123.40246 | 32060 ft | 407 kts | 207° |
| 2026-05-05 06:55 | 27.97086 | 123.37954 | 32055 ft | 406 kts | 207° |
| 2026-05-05 06:56 | 27.91745 | 123.35664 | 32053 ft | 407 kts | 208° |
| 2026-05-05 06:56 | 27.86436 | 123.33391 | 32082 ft | 407 kts | 207° |
| 2026-05-05 06:57 | 27.81131 | 123.31121 | 32077 ft | 406 kts | 207° |
| 2026-05-05 06:57 | 27.75790 | 123.28838 | 32079 ft | 408 kts | 207° |
| 2026-05-05 06:58 | 27.70414 | 123.26542 | 32079 ft | 408 kts | 207° |
| 2026-05-05 06:58 | 27.65077 | 123.24266 | 32071 ft | 408 kts | 207° |
| 2026-05-05 06:59 | 27.59726 | 123.21986 | 32072 ft | 408 kts | 207° |
| 2026-05-05 06:59 | 27.54396 | 123.19718 | 32075 ft | 407 kts | 207° |
| 2026-05-05 07:00 | 27.49073 | 123.17454 | 32069 ft | 408 kts | 207° |
| 2026-05-05 07:00 | 27.43724 | 123.15183 | 32065 ft | 408 kts | 207° |
| 2026-05-05 07:01 | 27.38376 | 123.12915 | 32060 ft | 408 kts | 207° |
| 2026-05-05 07:01 | 27.33001 | 123.10638 | 32058 ft | 410 kts | 207° |
| 2026-05-05 07:02 | 27.27663 | 123.08381 | 32055 ft | 410 kts | 207° |
| 2026-05-05 07:02 | 27.22254 | 123.06094 | 32050 ft | 410 kts | 207° |
| 2026-05-05 07:03 | 27.16877 | 123.03824 | 32062 ft | 412 kts | 207° |
| 2026-05-05 07:03 | 27.11471 | 123.01545 | 32054 ft | 411 kts | 207° |
| 2026-05-05 07:04 | 27.06361 | 122.98827 | 32043 ft | 401 kts | 219° |
| 2026-05-05 07:04 | 27.01779 | 122.95207 | 32047 ft | 401 kts | 220° |
| 2026-05-05 07:05 | 26.97176 | 122.91543 | 32045 ft | 402 kts | 220° |
| 2026-05-05 07:05 | 26.92618 | 122.87920 | 32044 ft | 401 kts | 220° |
| 2026-05-05 07:06 | 26.88027 | 122.84275 | 32049 ft | 402 kts | 220° |
| 2026-05-05 07:06 | 26.83495 | 122.80682 | 32052 ft | 402 kts | 220° |
| 2026-05-05 07:07 | 26.79052 | 122.77161 | 32043 ft | 402 kts | 220° |
| 2026-05-05 07:07 | 26.74394 | 122.73475 | 32045 ft | 403 kts | 220° |
| 2026-05-05 07:08 | 26.69782 | 122.69830 | 32040 ft | 402 kts | 220° |
| 2026-05-05 07:08 | 26.65161 | 122.66178 | 32036 ft | 404 kts | 220° |
| 2026-05-05 07:09 | 26.60492 | 122.62492 | 32036 ft | 402 kts | 220° |
| 2026-05-05 07:09 | 26.55818 | 122.58805 | 32033 ft | 404 kts | 220° |
| 2026-05-05 07:10 | 26.51211 | 122.55176 | 32030 ft | 405 kts | 220° |
| 2026-05-05 07:10 | 26.46586 | 122.51536 | 32022 ft | 403 kts | 220° |
| 2026-05-05 07:11 | 26.41880 | 122.47835 | 32016 ft | 404 kts | 220° |
| 2026-05-05 07:11 | 26.37202 | 122.44160 | 32013 ft | 404 kts | 220° |
| 2026-05-05 07:12 | 26.32595 | 122.40546 | 32015 ft | 403 kts | 220° |
| 2026-05-05 07:12 | 26.27929 | 122.36888 | 32013 ft | 405 kts | 220° |
| 2026-05-05 07:13 | 26.23196 | 122.33182 | 32027 ft | 405 kts | 220° |
| 2026-05-05 07:13 | 26.18588 | 122.29580 | 31327 ft | 399 kts | 220° |
| 2026-05-05 07:13 | 26.16284 | 122.27776 | 30439 ft | 403 kts | 220° |
| 2026-05-05 07:14 | 26.14000 | 122.25993 | 30025 ft | 395 kts | 219° |
| 2026-05-05 07:14 | 26.11686 | 122.24206 | 29573 ft | 389 kts | 219° |
| 2026-05-05 07:14 | 26.09465 | 122.22508 | 29076 ft | 384 kts | 219° |
| 2026-05-05 07:14 | 26.07211 | 122.20783 | 28533 ft | 380 kts | 219° |
| 2026-05-05 07:15 | 26.05001 | 122.19093 | 28001 ft | 376 kts | 219° |
| 2026-05-05 07:15 | 26.02850 | 122.17446 | 27489 ft | 372 kts | 219° |
| 2026-05-05 07:15 | 26.00671 | 122.15778 | 26974 ft | 382 kts | 219° |
| 2026-05-05 07:15 | 25.98450 | 122.14077 | 26435 ft | 384 kts | 219° |
| 2026-05-05 07:16 | 25.96186 | 122.12348 | 25874 ft | 382 kts | 219° |
| 2026-05-05 07:16 | 25.94014 | 122.10689 | 25355 ft | 378 kts | 219° |
| 2026-05-05 07:16 | 25.91819 | 122.09014 | 24829 ft | 374 kts | 219° |
| 2026-05-05 07:16 | 25.89662 | 122.07368 | 24297 ft | 372 kts | 219° |
| 2026-05-05 07:17 | 25.87523 | 122.05735 | 23768 ft | 370 kts | 219° |
| 2026-05-05 07:17 | 25.85365 | 122.04089 | 23242 ft | 367 kts | 219° |
| 2026-05-05 07:17 | 25.83216 | 122.02451 | 22703 ft | 365 kts | 219° |
| 2026-05-05 07:17 | 25.81103 | 122.00841 | 22190 ft | 362 kts | 219° |
| 2026-05-05 07:18 | 25.78997 | 121.99238 | 21670 ft | 359 kts | 219° |
| 2026-05-05 07:18 | 25.76912 | 121.97650 | 21148 ft | 357 kts | 219° |
| 2026-05-05 07:18 | 25.74825 | 121.96061 | 20628 ft | 354 kts | 219° |
| 2026-05-05 07:18 | 25.72749 | 121.94482 | 20087 ft | 352 kts | 219° |
| 2026-05-05 07:19 | 25.70723 | 121.92930 | 19698 ft | 348 kts | 219° |
| 2026-05-05 07:19 | 25.68672 | 121.91347 | 19473 ft | 350 kts | 219° |
| 2026-05-05 07:19 | 25.66667 | 121.89791 | 19221 ft | 350 kts | 221° |
| 2026-05-05 07:19 | 25.64787 | 121.87952 | 18956 ft | 347 kts | 230° |
| 2026-05-05 07:20 | 25.63281 | 121.85852 | 18689 ft | 345 kts | 238° |
| 2026-05-05 07:20 | 25.62036 | 121.83522 | 18458 ft | 344 kts | 241° |
| 2026-05-05 07:20 | 25.60858 | 121.81221 | 18179 ft | 342 kts | 242° |
| 2026-05-05 07:20 | 25.59676 | 121.78914 | 17904 ft | 340 kts | 242° |
| 2026-05-05 07:21 | 25.58483 | 121.76584 | 17640 ft | 338 kts | 242° |
| 2026-05-05 07:21 | 25.57302 | 121.74284 | 17398 ft | 338 kts | 242° |
| 2026-05-05 07:21 | 25.56122 | 121.71985 | 17131 ft | 337 kts | 242° |
| 2026-05-05 07:21 | 25.54936 | 121.69677 | 16854 ft | 336 kts | 242° |
| 2026-05-05 07:22 | 25.53765 | 121.67398 | 16612 ft | 336 kts | 242° |
| 2026-05-05 07:22 | 25.52592 | 121.65117 | 16357 ft | 335 kts | 242° |
| 2026-05-05 07:22 | 25.51413 | 121.62826 | 16105 ft | 334 kts | 242° |
| 2026-05-05 07:22 | 25.50252 | 121.60571 | 16057 ft | 335 kts | 242° |
| 2026-05-05 07:23 | 25.49061 | 121.58269 | 16021 ft | 337 kts | 240° |
| 2026-05-05 07:23 | 25.47640 | 121.56158 | 15727 ft | 339 kts | 233° |
| 2026-05-05 07:23 | 25.46094 | 121.54168 | 15259 ft | 338 kts | 232° |
| 2026-05-05 07:23 | 25.44521 | 121.52171 | 14733 ft | 337 kts | 232° |
| 2026-05-05 07:24 | 25.42983 | 121.50211 | 14213 ft | 335 kts | 232° |
| 2026-05-05 07:24 | 25.41423 | 121.48219 | 13670 ft | 333 kts | 232° |
| 2026-05-05 07:24 | 25.39864 | 121.46223 | 13146 ft | 332 kts | 232° |
| 2026-05-05 07:24 | 25.38331 | 121.44262 | 12639 ft | 331 kts | 232° |
| 2026-05-05 07:25 | 25.36789 | 121.42293 | 12101 ft | 330 kts | 232° |
| 2026-05-05 07:25 | 25.35290 | 121.40379 | 11594 ft | 328 kts | 231° |
| 2026-05-05 07:25 | 25.33772 | 121.38441 | 11080 ft | 326 kts | 231° |
| 2026-05-05 07:25 | 25.32282 | 121.36539 | 10596 ft | 323 kts | 231° |
| 2026-05-05 07:26 | 25.30795 | 121.34643 | 10457 ft | 309 kts | 231° |
| 2026-05-05 07:26 | 25.29392 | 121.32855 | 10377 ft | 294 kts | 231° |
| 2026-05-05 07:26 | 25.28051 | 121.31145 | 10255 ft | 282 kts | 231° |
| 2026-05-05 07:26 | 25.26763 | 121.29504 | 10129 ft | 271 kts | 231° |
| 2026-05-05 07:27 | 25.25535 | 121.27939 | 9991 ft | 262 kts | 231° |
| 2026-05-05 07:27 | 25.24322 | 121.26394 | 9663 ft | 261 kts | 231° |
| 2026-05-05 07:27 | 25.23106 | 121.24844 | 9266 ft | 262 kts | 230° |
| 2026-05-05 07:27 | 25.21903 | 121.23313 | 8899 ft | 262 kts | 230° |
| 2026-05-05 07:28 | 25.20693 | 121.21774 | 8550 ft | 261 kts | 230° |
| 2026-05-05 07:28 | 25.19476 | 121.20225 | 8197 ft | 261 kts | 230° |
| 2026-05-05 07:28 | 25.18262 | 121.18682 | 7850 ft | 260 kts | 230° |
| 2026-05-05 07:28 | 25.17052 | 121.17145 | 7502 ft | 260 kts | 230° |
| 2026-05-05 07:29 | 25.15854 | 121.15623 | 7165 ft | 259 kts | 230° |
| 2026-05-05 07:29 | 25.14651 | 121.14095 | 6838 ft | 258 kts | 230° |
| 2026-05-05 07:29 | 25.13447 | 121.12566 | 6503 ft | 257 kts | 230° |
| 2026-05-05 07:29 | 25.12261 | 121.11060 | 6173 ft | 257 kts | 229° |
| 2026-05-05 07:30 | 25.11063 | 121.09539 | 5836 ft | 256 kts | 229° |
| 2026-05-05 07:30 | 25.08720 | 121.06562 | 5186 ft | 254 kts | 230° |
| 2026-05-05 07:30 | 25.07539 | 121.05061 | 4889 ft | 253 kts | 229° |
| 2026-05-05 07:31 | 25.06376 | 121.03586 | 4624 ft | 249 kts | 229° |
| 2026-05-05 07:31 | 25.05257 | 121.02166 | 4527 ft | 241 kts | 229° |
| 2026-05-05 07:31 | 25.03885 | 121.01029 | 4066 ft | 247 kts | 201° |
| 2026-05-05 07:31 | 25.02182 | 121.00823 | 3817 ft | 243 kts | 169° |
| 2026-05-05 07:32 | 25.00662 | 121.01569 | 3750 ft | 229 kts | 143° |
| 2026-05-05 07:32 | 24.99437 | 121.02699 | 3695 ft | 217 kts | 137° |
| 2026-05-05 07:32 | 24.98332 | 121.03822 | 3621 ft | 205 kts | 137° |
| 2026-05-05 07:32 | 24.97311 | 121.04880 | 3521 ft | 194 kts | 136° |
| 2026-05-05 07:33 | 24.96557 | 121.06117 | 3267 ft | 191 kts | 104° |
| 2026-05-05 07:33 | 24.96489 | 121.07594 | 3035 ft | 190 kts | 78° |
| 2026-05-05 07:33 | 24.97125 | 121.08870 | 2805 ft | 186 kts | 50° |
| 2026-05-05 07:33 | 24.98018 | 121.09933 | 2601 ft | 185 kts | 48° |
| 2026-05-05 07:34 | 24.98871 | 121.10976 | 2389 ft | 183 kts | 50° |
| 2026-05-05 07:34 | 24.99714 | 121.12043 | 2177 ft | 181 kts | 50° |
| 2026-05-05 07:34 | 25.00544 | 121.13092 | 1970 ft | 178 kts | 50° |
| 2026-05-05 07:34 | 25.01347 | 121.14104 | 1766 ft | 168 kts | 50° |
| 2026-05-05 07:35 | 25.02092 | 121.15047 | 1576 ft | 158 kts | 50° |
| 2026-05-05 07:35 | 25.02812 | 121.15955 | 1388 ft | 155 kts | 50° |
| 2026-05-05 07:35 | 25.03512 | 121.16837 | 1204 ft | 154 kts | 50° |
| 2026-05-05 07:35 | 25.04225 | 121.17740 | 1013 ft | 152 kts | 51° |
| 2026-05-05 07:36 | 25.04911 | 121.18607 | 832 ft | 149 kts | 51° |
| 2026-05-05 07:36 | 25.05565 | 121.19432 | 643 ft | 148 kts | 50° |
| 2026-05-05 07:36 | 25.06259 | 121.20289 | 451 ft | 151 kts | 51° |
| 2026-05-05 07:36 | 25.06959 | 121.21178 | 261 ft | 154 kts | 50° |
| 2026-05-05 07:37 | 25.07665 | 121.22075 | 123 ft | 148 kts | 51° |
| 2026-05-05 07:37 | 25.08243 | 121.22816 | 121 ft | 104 kts | 50° |
| 2026-05-05 07:37 | 25.08621 | 121.23293 | 121 ft | 59 kts | 50° |
| 2026-05-05 07:37 | 25.08723 | 121.23542 | 121 ft | 17 kts | 77° |
| 2026-05-05 07:38 | 25.08737 | 121.23632 | 121 ft | 8 kts | 90° |
| 2026-05-05 07:38 | 25.08700 | 121.23669 | 121 ft | 9 kts | 182° |
| 2026-05-05 07:38 | 25.08634 | 121.23621 | 121 ft | 12 kts | 231° |
| 2026-05-05 07:38 | 25.08580 | 121.23550 | 121 ft | 12 kts | 230° |
| 2026-05-05 07:39 | 25.08526 | 121.23480 | 121 ft | 11 kts | 229° |
| 2026-05-05 07:39 | 25.08468 | 121.23408 | 121 ft | 13 kts | 229° |
| 2026-05-05 07:39 | 25.08406 | 121.23327 | 121 ft | 13 kts | 228° |
| 2026-05-05 07:39 | 25.08343 | 121.23248 | 121 ft | 13 kts | 229° |
| 2026-05-05 07:40 | 25.08283 | 121.23171 | 121 ft | 13 kts | 229° |
| 2026-05-05 07:40 | 25.08238 | 121.23119 | 121 ft | 6 kts | 207° |
| 2026-05-05 07:40 | 25.08182 | 121.23134 | 121 ft | 10 kts | 147° |
| 2026-05-05 07:40 | 25.08118 | 121.23125 | 121 ft | 9 kts | 214° |
| 2026-05-05 07:41 | 25.08075 | 121.23076 | 121 ft | 9 kts | 227° |
| 2026-05-05 07:41 | 25.08038 | 121.23034 | 121 ft | 5 kts | 208° |
| 2026-05-05 07:41 | 25.08002 | 121.23041 | 121 ft | 5 kts | 146° |
| 2026-05-05 07:41 | 25.07971 | 121.23070 | 121 ft | 4 kts | 139° |
| 2026-05-05 07:42 | 25.07955 | 121.23086 | 121 ft | 2 kts | 139° |
| 2026-05-05 07:42 | 25.07948 | 121.23092 | 121 ft | 0 kts | 139° |